^^
Meteo Knjazevac Station Historical Data
Daily Summary for January 23, 2022 Units:  English    Metric   Both
Daily Weekly Monthly Yearly Custom
  High: Low: Average:
Temperature: 29.7 °F 23.7 °F 26.8 °F
Dew Point: 23.5 °F 19.5 °F 21.4 °F
Humidity: 86% 75% 80%
Wind Speed: 13mph 0mph 5.1mph
Wind Gust: 21mph - -
Wind- - West
Pressure: 30.33 in 30.26 in -
Precipitation: 0.00 in    
Historical Graphs
 
 
Tabular Data for January 23, 2022
Time Temperature Dew Point Pressure Wind Wind Speed Wind Gust Humidity Rainfall Rate (Hourly) solar Conditions
00:00 26 °F 21.5 °F 30.26 in West 3 mph 9 mph 83% 0.00 in 0 W/m2
00:10 26.4 °F 21.4 °F 30.26 in West 5 mph 8 mph 81% 0.00 in 0 W/m2
00:20 26.6 °F 21.6 °F 30.27 in West 3 mph 7 mph 81% 0.00 in 0 W/m2
00:30 26.6 °F 21.3 °F 30.26 in West 5 mph 7 mph 80% 0.00 in 0 W/m2
00:40 26.8 °F 21.7 °F 30.27 in West 6 mph 8 mph 81% 0.00 in 0 W/m2
00:50 26.8 °F 21.7 °F 30.27 in West 5 mph 9 mph 81% 0.00 in 0 W/m2
01:00 26.8 °F 21.7 °F 30.27 in West 5 mph 8 mph 81% 0.00 in 0 W/m2
01:10 26.8 °F 21.7 °F 30.27 in West 5 mph 7 mph 81% 0.00 in 0 W/m2
01:20 26.6 °F 21.6 °F 30.27 in West 7 mph 9 mph 81% 0.00 in 0 W/m2
01:30 26.6 °F 21.6 °F 30.26 in WNW 6 mph 9 mph 81% 0.00 in 0 W/m2
01:40 26.4 °F 21.4 °F 30.27 in West 6 mph 8 mph 81% 0.00 in 0 W/m2
01:50 26.1 °F 21 °F 30.27 in West 5 mph 8 mph 81% 0.00 in 0 W/m2
02:00 25.9 °F 20.9 °F 30.27 in West 3 mph 7 mph 81% 0.00 in 0 W/m2
02:10 25.7 °F 20.7 °F 30.27 in West 5 mph 6 mph 81% 0.00 in 0 W/m2
02:20 25.5 °F 20.5 °F 30.27 in West 3 mph 7 mph 81% 0.00 in 0 W/m2
02:30 25.5 °F 20.5 °F 30.27 in West 6 mph 10 mph 81% 0.00 in 0 W/m2
02:40 25.6 °F 20.6 °F 30.27 in WNW 5 mph 10 mph 81% 0.00 in 0 W/m2
02:50 25.5 °F 20.5 °F 30.27 in West 6 mph 9 mph 81% 0.00 in 0 W/m2
03:00 25.5 °F 20.5 °F 30.27 in West 5 mph 9 mph 81% 0.00 in 0 W/m2
03:10 25.3 °F 20.3 °F 30.27 in West 5 mph 7 mph 81% 0.00 in 0 W/m2
03:20 25.5 °F 20.5 °F 30.27 in WNW 5 mph 10 mph 81% 0.00 in 0 W/m2
03:30 25.5 °F 20.5 °F 30.27 in WNW 5 mph 9 mph 81% 0.00 in 0 W/m2
03:40 25.4 °F 20.4 °F 30.27 in West 5 mph 8 mph 81% 0.00 in 0 W/m2
03:50 25.2 °F 20.1 °F 30.27 in West 3 mph 7 mph 81% 0.00 in 0 W/m2
04:00 25.2 °F 20.7 °F 30.28 in WNW 5 mph 7 mph 83% 0.00 in 0 W/m2
04:10 25.2 °F 20.7 °F 30.28 in WNW 1 mph 8 mph 83% 0.00 in 0 W/m2
04:20 25.3 °F 21.2 °F 30.28 in WNW 5 mph 7 mph 84% 0.00 in 0 W/m2
04:30 25.3 °F 20.8 °F 30.28 in West 1 mph 6 mph 83% 0.00 in 0 W/m2
04:40 24.8 °F 20.4 °F 30.28 in SSW 1 mph 6 mph 83% 0.00 in 0 W/m2
04:50 23.9 °F 19.5 °F 30.28 in South 1 mph 5 mph 83% 0.00 in 0 W/m2
05:00 23.7 °F 19.9 °F 30.28 in NW 2 mph 6 mph 85% 0.00 in 0 W/m2
05:10 24.3 °F 20.5 °F 30.28 in WNW 3 mph 8 mph 85% 0.00 in 0 W/m2
05:20 24.7 °F 20.8 °F 30.28 in West 2 mph 8 mph 85% 0.00 in 0 W/m2
05:30 25.1 °F 20.9 °F 30.28 in WSW 3 mph 12 mph 84% 0.00 in 0 W/m2
05:40 25.2 °F 21 °F 30.28 in WSW 3 mph 8 mph 84% 0.00 in 0 W/m2
05:50 24.9 °F 20.7 °F 30.29 in WSW 5 mph 7 mph 84% 0.00 in 0 W/m2
06:00 24.6 °F 20.2 °F 30.29 in WSW 5 mph 8 mph 83% 0.00 in 0 W/m2
06:10 24.4 °F 20.3 °F 30.29 in WSW 5 mph 9 mph 84% 0.00 in 0 W/m2
06:20 24.8 °F 20.4 °F 30.29 in WSW 7 mph 12 mph 83% 0.00 in 0 W/m2
06:30 24.6 °F 20.2 °F 30.29 in WSW 7 mph 12 mph 83% 0.00 in 0 W/m2
06:40 24.6 °F 20.2 °F 30.29 in West 6 mph 12 mph 83% 0.00 in 0 W/m2
06:50 24.6 °F 20.2 °F 30.30 in WSW 6 mph 12 mph 83% 0.00 in 0 W/m2
07:00 24.4 °F 20 °F 30.30 in West 6 mph 12 mph 83% 0.00 in 4 W/m2
07:10 24.4 °F 20 °F 30.30 in West 6 mph 12 mph 83% 0.00 in 4 W/m2
07:20 24.4 °F 20 °F 30.31 in West 7 mph 11 mph 83% 0.00 in 18 W/m2
07:30 24.6 °F 20.2 °F 30.31 in West 7 mph 12 mph 83% 0.00 in 21 W/m2
07:40 24.8 °F 20.4 °F 30.31 in West 6 mph 11 mph 83% 0.00 in 24 W/m2
07:50 24.8 °F 20.4 °F 30.31 in West 6 mph 10 mph 83% 0.00 in 29 W/m2
08:00 25.1 °F 20.4 °F 30.31 in West 7 mph 10 mph 82% 0.00 in 38 W/m2
08:10 25.3 °F 20.3 °F 30.31 in WSW 7 mph 13 mph 81% 0.00 in 37 W/m2
08:20 25.5 °F 20.5 °F 30.31 in WSW 6 mph 10 mph 81% 0.00 in 45 W/m2
08:30 25.7 °F 20.7 °F 30.31 in WSW 6 mph 10 mph 81% 0.00 in 49 W/m2
08:40 25.9 °F 20.9 °F 30.31 in West 5 mph 10 mph 81% 0.00 in 52 W/m2
08:50 26.1 °F 21 °F 30.31 in West 6 mph 10 mph 81% 0.00 in 57 W/m2
09:00 26.2 °F 20.9 °F 30.31 in West 6 mph 12 mph 80% 0.00 in 55 W/m2
09:10 26.4 °F 21.1 °F 30.31 in West 5 mph 10 mph 80% 0.00 in 70 W/m2
09:20 26.6 °F 21.3 °F 30.32 in WSW 5 mph 9 mph 80% 0.00 in 68 W/m2
09:30 26.8 °F 21.4 °F 30.31 in West 5 mph 9 mph 80% 0.00 in 80 W/m2
09:40 27 °F 21.3 °F 30.32 in West 6 mph 13 mph 79% 0.00 in 78 W/m2
09:50 27.1 °F 21.5 °F 30.32 in West 7 mph 10 mph 79% 0.00 in 85 W/m2
10:00 27.3 °F 21.7 °F 30.32 in West 5 mph 9 mph 79% 0.00 in 89 W/m2
10:10 27.5 °F 21.8 °F 30.32 in West 7 mph 12 mph 79% 0.00 in 102 W/m2
10:20 27.5 °F 21.8 °F 30.32 in West 5 mph 11 mph 79% 0.00 in 102 W/m2
10:30 27.5 °F 21.8 °F 30.32 in West 5 mph 12 mph 79% 0.00 in 102 W/m2
10:40 27.7 °F 22 °F 30.32 in West 7 mph 13 mph 79% 0.00 in 111 W/m2
10:50 27.7 °F 22 °F 30.31 in West 7 mph 13 mph 79% 0.00 in 125 W/m2
11:00 27.9 °F 22.2 °F 30.31 in West 7 mph 13 mph 79% 0.00 in 172 W/m2
11:10 28 °F 22.4 °F 30.31 in West 9 mph 14 mph 79% 0.00 in 232 W/m2
11:20 28.4 °F 22.7 °F 30.30 in West 7 mph 14 mph 79% 0.00 in 243 W/m2
11:30 28.7 °F 23 °F 30.30 in West 6 mph 13 mph 79% 0.00 in 248 W/m2
11:40 29.1 °F 23.1 °F 30.30 in WSW 6 mph 12 mph 78% 0.00 in 280 W/m2
11:50 29.5 °F 23.5 °F 30.30 in WSW 9 mph 15 mph 78% 0.00 in 275 W/m2
12:00 29.5 °F 23.2 °F 30.29 in WSW 9 mph 15 mph 77% 0.00 in 255 W/m2
12:10 29.6 °F 23.3 °F 30.29 in WSW 12 mph 18 mph 77% 0.00 in 203 W/m2
12:20 29.7 °F 22.7 °F 30.28 in WSW 13 mph 18 mph 75% 0.00 in 155 W/m2
12:30 29.3 °F 22.4 °F 30.28 in WSW 12 mph 20 mph 75% 0.00 in 115 W/m2
12:40 29.1 °F 22.2 °F 30.28 in WSW 12 mph 20 mph 75% 0.00 in 99 W/m2
12:50 28.8 °F 21.9 °F 30.28 in West 10 mph 20 mph 75% 0.00 in 116 W/m2
13:00 28.8 °F 22.5 °F 30.28 in West 8 mph 21 mph 77% 0.00 in 122 W/m2
13:10 28.8 °F 21.8 °F 30.29 in West 13 mph 20 mph 75% 0.00 in 111 W/m2
13:20 28.6 °F 21.7 °F 30.28 in WSW 12 mph 18 mph 75% 0.00 in 97 W/m2
13:30 28.6 °F 22.3 °F 30.28 in WSW 12 mph 20 mph 77% 0.00 in 97 W/m2
13:40 28.6 °F 22.3 °F 30.28 in WSW 9 mph 15 mph 77% 0.00 in 86 W/m2
13:50 28.6 °F 22.3 °F 30.28 in WSW 6 mph 16 mph 77% 0.00 in 76 W/m2
14:00 28.6 °F 22 °F 30.29 in West 5 mph 8 mph 76% 0.00 in 64 W/m2
14:10 28.8 °F 21.8 °F 30.28 in West 3 mph 8 mph 75% 0.00 in 71 W/m2
14:20 28.9 °F 22 °F 30.28 in West 5 mph 9 mph 75% 0.00 in 77 W/m2
14:30 28.8 °F 21.8 °F 30.29 in West 10 mph 14 mph 75% 0.00 in 65 W/m2
14:40 28.6 °F 21.7 °F 30.29 in West 9 mph 17 mph 75% 0.00 in 61 W/m2
14:50 28.5 °F 21.6 °F 30.28 in West 7 mph 14 mph 75% 0.00 in 50 W/m2
15:00 28.6 °F 22.3 °F 30.29 in West 7 mph 13 mph 77% 0.00 in 48 W/m2
15:10 28.4 °F 22.1 °F 30.29 in West 7 mph 13 mph 77% 0.00 in 71 W/m2
15:20 28.4 °F 22.1 °F 30.29 in West 7 mph 12 mph 77% 0.00 in 65 W/m2
15:30 28.5 °F 22.2 °F 30.29 in West 6 mph 11 mph 77% 0.00 in 48 W/m2
15:40 28.6 °F 22.3 °F 30.29 in West 5 mph 9 mph 77% 0.00 in 28 W/m2
15:50 28.4 °F 22.1 °F 30.29 in West 5 mph 10 mph 77% 0.00 in 20 W/m2
16:00 28.4 °F 22.1 °F 30.29 in West 3 mph 12 mph 77% 0.00 in 15 W/m2
16:10 28.2 °F 21.9 °F 30.29 in West 3 mph 12 mph 77% 0.00 in 5 W/m2
16:20 28.1 °F 21.8 °F 30.29 in West 6 mph 10 mph 77% 0.00 in 5 W/m2
16:30 28 °F 21.7 °F 30.29 in WSW 3 mph 9 mph 77% 0.00 in 0 W/m2
16:40 27.9 °F 21.9 °F 30.29 in WSW 5 mph 12 mph 78% 0.00 in 0 W/m2
16:50 27.7 °F 21.4 °F 30.30 in WSW 7 mph 12 mph 77% 0.00 in 0 W/m2
17:00 27.7 °F 21.4 °F 30.30 in WSW 6 mph 10 mph 77% 0.00 in 0 W/m2
17:10 27.5 °F 21.5 °F 30.30 in WSW 6 mph 9 mph 78% 0.00 in 0 W/m2
17:20 27.3 °F 21.4 °F 30.30 in WSW 6 mph 9 mph 78% 0.00 in 0 W/m2
17:30 27.3 °F 21.4 °F 30.29 in WSW 6 mph 8 mph 78% 0.00 in 0 W/m2
17:40 27.1 °F 21.2 °F 30.29 in WSW 6 mph 10 mph 78% 0.00 in 0 W/m2
17:50 27 °F 21 °F 30.30 in WSW 5 mph 8 mph 78% 0.00 in 0 W/m2
18:00 26.8 °F 20.9 °F 30.30 in WSW 5 mph 8 mph 78% 0.00 in 0 W/m2
18:10 26.9 °F 21.3 °F 30.30 in WSW 5 mph 7 mph 79% 0.00 in 0 W/m2
18:20 27 °F 21.3 °F 30.30 in WSW 6 mph 9 mph 79% 0.00 in 0 W/m2
18:30 26.8 °F 21.2 °F 30.30 in WSW 6 mph 8 mph 79% 0.00 in 0 W/m2
18:40 26.8 °F 21.1 °F 30.30 in WSW 5 mph 8 mph 79% 0.00 in 0 W/m2
18:50 26.8 °F 21.1 °F 30.30 in WSW 5 mph 8 mph 79% 0.00 in 0 W/m2
19:00 26.8 °F 21.1 °F 30.31 in WSW 3 mph 7 mph 79% 0.00 in 0 W/m2
19:10 26.8 °F 21.1 °F 30.31 in WSW 3 mph 7 mph 79% 0.00 in 0 W/m2
19:20 26.8 °F 21.1 °F 30.31 in WSW 3 mph 8 mph 79% 0.00 in 0 W/m2
19:30 26.8 °F 21.1 °F 30.31 in West 3 mph 6 mph 79% 0.00 in 0 W/m2
19:40 26.8 °F 21.1 °F 30.31 in West 1 mph 5 mph 79% 0.00 in 0 W/m2
19:50 26.8 °F 21.1 °F 30.31 in WSW 1 mph 3 mph 79% 0.00 in 0 W/m2
20:00 26.8 °F 21.1 °F 30.31 in WSW 2 mph 3 mph 79% 0.00 in 0 W/m2
20:10 26.8 °F 21.1 °F 30.31 in WSW 1 mph 2 mph 79% 0.00 in 0 W/m2
20:20 26.9 °F 21.3 °F 30.31 in West 2 mph 3 mph 79% 0.00 in 0 W/m2
20:30 26.8 °F 21.2 °F 30.31 in WSW 1 mph 3 mph 79% 0.00 in 0 W/m2
20:40 27 °F 21.3 °F 30.31 in West 1 mph 6 mph 79% 0.00 in 0 W/m2
20:50 27.1 °F 21.1 °F 30.31 in West 2 mph 5 mph 78% 0.00 in 0 W/m2
21:00 27.1 °F 21.2 °F 30.31 in West 3 mph 5 mph 78% 0.00 in 0 W/m2
21:10 27.1 °F 21.2 °F 30.31 in West 2 mph 3 mph 78% 0.00 in 0 W/m2
21:20 27.3 °F 21.4 °F 30.31 in West 2 mph 4 mph 78% 0.00 in 0 W/m2
21:30 27.3 °F 21.4 °F 30.31 in West 3 mph 6 mph 78% 0.00 in 0 W/m2
21:40 27.3 °F 21.4 °F 30.31 in WNW 3 mph 6 mph 78% 0.00 in 0 W/m2
21:50 27.3 °F 21.7 °F 30.31 in WNW 3 mph 6 mph 79% 0.00 in 0 W/m2
22:00 27.3 °F 21.7 °F 30.31 in WNW 3 mph 6 mph 79% 0.00 in 0 W/m2
22:10 27.3 °F 21.7 °F 30.31 in WNW 3 mph 5 mph 79% 0.00 in 0 W/m2
22:20 27.3 °F 21.7 °F 30.31 in WNW 2 mph 4 mph 79% 0.00 in 0 W/m2
22:30 27.2 °F 21.5 °F 30.32 in West 2 mph 3 mph 79% 0.00 in 0 W/m2
22:40 27.1 °F 21.5 °F 30.32 in Calm   2 mph 79% 0.00 in 0 W/m2
22:50 27.1 °F 21.8 °F 30.32 in Calm   2 mph 80% 0.00 in 0 W/m2
23:00 27.1 °F 21.8 °F 30.32 in Calm   2 mph 80% 0.00 in 0 W/m2
23:10 27.1 °F 21.8 °F 30.32 in NW 2 mph 3 mph 80% 0.00 in 0 W/m2
23:20 27.1 °F 21.8 °F 30.32 in NW 2 mph 3 mph 80% 0.00 in 0 W/m2
23:30 27.1 °F 21.8 °F 30.32 in North 3 mph 5 mph 80% 0.00 in 0 W/m2
23:40 27.1 °F 22.7 °F 30.32 in North 3 mph 7 mph 83% 0.00 in 0 W/m2
23:50 27 °F 23.3 °F 30.33 in North 1 mph 6 mph 86% 0.00 in 0 W/m2
Knjazevac, Serbia
Compliments of Weather Underground - 2 mb